createdAt,value
2023-01-13T00:00:38.539Z,93780.78
2023-01-13T00:03:05.346Z,93717.06
2023-01-13T00:05:31.962Z,93748.66
2023-01-13T00:07:58.511Z,93779.22
2023-01-13T00:10:25.104Z,93747.81
2023-01-13T00:12:53.573Z,93739.47
2023-01-13T00:15:20.099Z,93751.56
2023-01-13T00:17:48.817Z,93769.78
2023-01-13T00:20:15.827Z,93743.66
2023-01-13T00:22:42.354Z,93746.88
2023-01-13T00:25:09.132Z,93743.47
2023-01-13T00:27:35.962Z,93715.78
2023-01-13T00:30:02.736Z,93722.38
2023-01-13T00:32:36.513Z,93726.41
2023-01-13T00:35:03.870Z,93681.66
2023-01-13T00:37:30.434Z,93700.84
2023-01-13T00:39:58.018Z,93672.53
2023-01-13T00:42:43.358Z,93693.75
2023-01-13T00:45:10.280Z,93679.00
2023-01-13T00:47:36.820Z,93677.53
2023-01-13T00:50:03.698Z,93698.41
2023-01-13T00:52:32.287Z,93701.56
2023-01-13T00:54:58.788Z,93699.69
2023-01-13T00:57:25.298Z,93682.06
2023-01-13T00:59:51.798Z,93706.47
2023-01-13T01:02:18.346Z,93670.66
2023-01-13T01:04:45.006Z,93676.25
2023-01-13T01:07:11.523Z,93655.06
2023-01-13T01:09:42.145Z,93665.88
2023-01-13T01:12:08.706Z,93691.38
2023-01-13T01:14:35.287Z,93674.88
2023-01-13T01:17:01.951Z,93651.00
2023-01-13T01:19:28.561Z,93660.03
2023-01-13T01:21:55.157Z,93651.47
2023-01-13T01:24:29.978Z,93649.88
2023-01-13T01:26:56.601Z,93637.13
2023-01-13T01:29:23.137Z,93647.03
2023-01-13T01:31:49.754Z,93659.16
2023-01-13T01:34:16.318Z,93653.88
2023-01-13T01:36:42.979Z,93657.03
2023-01-13T01:39:10.343Z,93632.44
2023-01-13T01:41:37.339Z,93644.13
2023-01-13T01:44:41.636Z,93675.75
2023-01-13T01:47:17.519Z,93642.72
2023-01-13T01:49:45.345Z,93656.94
2023-01-13T01:52:14.493Z,93637.25
2023-01-13T01:54:48.653Z,93605.31
2023-01-13T01:57:20.792Z,93661.53
2023-01-13T01:59:47.638Z,93649.44
2023-01-13T02:02:14.363Z,93620.91
2023-01-13T02:05:00.695Z,93646.78
2023-01-13T02:07:30.640Z,93653.31
2023-01-13T02:10:00.047Z,93625.16
2023-01-13T02:12:30.591Z,93640.19
2023-01-13T02:15:00.867Z,93625.22
2023-01-13T02:17:40.549Z,93634.03
2023-01-13T02:21:01.287Z,93648.88
2023-01-13T02:24:31.448Z,93643.44
2023-01-13T02:27:19.814Z,93636.88
2023-01-13T02:30:27.020Z,93610.34
2023-01-13T02:33:08.678Z,93636.69
2023-01-13T02:35:49.825Z,93632.50
2023-01-13T02:38:23.130Z,93628.94
2023-01-13T02:41:37.520Z,93645.22
2023-01-13T02:44:08.835Z,93625.31
2023-01-13T02:46:49.012Z,93593.72
2023-01-13T02:49:28.817Z,93589.19
2023-01-13T02:52:03.335Z,93610.25
2023-01-13T02:54:32.528Z,93604.91
2023-01-13T02:57:01.123Z,93608.03
2023-01-13T02:59:30.053Z,93612.91
2023-01-13T03:01:58.029Z,93624.38
2023-01-13T03:04:54.372Z,93627.53
2023-01-13T03:07:44.670Z,93637.16
2023-01-13T03:10:41.716Z,93605.38
2023-01-13T03:13:27.004Z,93613.41
2023-01-13T03:15:53.340Z,93634.59
2023-01-13T03:18:45.212Z,93611.78
2023-01-13T03:21:48.835Z,93647.19
2023-01-13T03:24:53.033Z,93653.72
2023-01-13T03:27:30.251Z,93637.94
2023-01-13T03:30:07.854Z,93618.53
2023-01-13T03:32:42.331Z,93592.00
2023-01-13T03:35:30.866Z,93635.94
2023-01-13T03:38:03.440Z,93597.88
2023-01-13T03:40:34.438Z,93602.53
2023-01-13T03:43:25.433Z,93608.97
2023-01-13T03:45:57.378Z,93612.19
2023-01-13T03:48:27.666Z,93591.38
2023-01-13T03:50:58.614Z,93618.69
2023-01-13T03:53:34.451Z,93602.72
2023-01-13T03:56:11.449Z,93602.97
2023-01-13T03:58:43.322Z,93581.19
2023-01-13T04:01:21.420Z,93616.41
2023-01-13T04:04:00.055Z,93613.31
2023-01-13T04:07:08.361Z,93626.38
2023-01-13T04:09:53.406Z,93573.47
2023-01-13T04:12:48.693Z,93589.31
2023-01-13T04:15:17.138Z,93603.56
2023-01-13T04:17:43.662Z,93589.06
2023-01-13T04:20:10.801Z,93611.03
2023-01-13T04:22:37.219Z,93576.22
2023-01-13T04:25:04.151Z,93594.69
2023-01-13T04:27:30.865Z,93606.47
2023-01-13T04:29:57.274Z,93608.84
2023-01-13T04:32:23.718Z,93610.91
2023-01-13T04:34:50.143Z,93568.56
2023-01-13T04:37:16.558Z,93565.34
2023-01-13T04:40:22.203Z,93611.84
2023-01-13T04:42:48.608Z,93580.44
2023-01-13T04:45:15.035Z,93569.19
2023-01-13T04:47:41.929Z,93596.88
2023-01-13T04:50:20.952Z,93613.75
2023-01-13T04:52:48.208Z,93595.69
2023-01-13T04:55:15.690Z,93579.88
2023-01-13T04:57:42.175Z,93582.31
2023-01-13T05:00:10.504Z,93584.69
2023-01-13T05:02:36.991Z,93588.88
2023-01-13T05:05:04.221Z,93539.13
2023-01-13T05:07:30.893Z,93585.31
2023-01-13T05:10:02.341Z,93558.41
2023-01-13T05:12:47.478Z,93540.78
2023-01-13T05:15:34.354Z,93591.56
2023-01-13T05:18:01.208Z,93589.59
2023-01-13T05:20:27.721Z,93553.19
2023-01-13T05:23:15.788Z,93550.19
2023-01-13T05:25:49.712Z,93582.06
2023-01-13T05:28:16.159Z,93573.91
2023-01-13T05:30:46.125Z,93588.28
2023-01-13T05:33:14.817Z,93561.19
2023-01-13T05:35:47.255Z,93591.59
2023-01-13T05:38:14.119Z,93578.53
2023-01-13T05:41:00.245Z,93538.94
2023-01-13T05:43:27.785Z,93583.81
2023-01-13T05:45:59.085Z,93574.78
2023-01-13T05:48:36.888Z,93537.34
2023-01-13T05:51:05.606Z,93557.47
2023-01-13T05:53:35.817Z,93547.50
2023-01-13T05:56:05.960Z,93538.88
2023-01-13T05:58:32.390Z,93532.59
2023-01-13T06:01:03.696Z,93542.84
2023-01-13T06:03:30.207Z,93555.91
2023-01-13T06:05:59.276Z,93547.75
2023-01-13T06:08:25.951Z,93542.84
2023-01-13T06:10:52.415Z,93567.00
2023-01-13T06:13:19.138Z,93578.81
2023-01-13T06:15:45.686Z,93556.09
2023-01-13T06:18:12.244Z,93543.88
2023-01-13T06:20:38.670Z,93571.53
2023-01-13T06:23:09.662Z,93578.22
2023-01-13T06:25:59.763Z,93561.44
2023-01-13T06:28:27.833Z,93550.97
2023-01-13T06:31:03.997Z,93526.59
2023-01-13T06:34:31.109Z,93550.28
2023-01-13T06:40:52.767Z,93538.78
2023-01-13T06:43:19.373Z,93547.03
2023-01-13T06:45:56.392Z,93560.59
2023-01-13T06:48:25.889Z,93566.88
2023-01-13T06:50:52.290Z,93575.63
2023-01-13T06:53:18.993Z,93587.53
2023-01-13T06:55:45.564Z,93531.53
2023-01-13T06:58:20.119Z,93561.34
2023-01-13T07:00:51.164Z,93603.66
2023-01-13T07:03:19.291Z,93603.47
2023-01-13T07:05:52.630Z,93595.53
2023-01-13T07:08:19.318Z,93575.94
2023-01-13T07:10:45.919Z,93579.97
2023-01-13T07:13:31.111Z,93566.06
2023-01-13T07:15:59.656Z,93541.91
2023-01-13T07:18:28.351Z,93563.34
2023-01-13T07:20:56.553Z,93557.41
2023-01-13T07:23:23.451Z,93576.81
2023-01-13T07:25:50.407Z,93566.13
2023-01-13T07:28:17.054Z,93566.53
2023-01-13T07:30:43.541Z,93591.16
2023-01-13T07:33:09.932Z,93569.28
2023-01-13T07:35:36.361Z,93593.91
2023-01-13T07:38:03.006Z,93603.94
2023-01-13T07:40:29.495Z,93595.75
2023-01-13T07:43:14.610Z,93575.34
2023-01-13T07:45:41.068Z,93570.63
2023-01-13T07:48:07.521Z,93574.66
2023-01-13T07:50:33.965Z,93600.88
2023-01-13T07:53:03.476Z,93557.25
2023-01-13T07:55:29.929Z,93599.56
2023-01-13T07:57:56.372Z,93609.34
2023-01-13T08:00:23.268Z,93619.66
2023-01-13T08:02:49.690Z,93600.06
2023-01-13T08:05:16.744Z,93574.38
2023-01-13T08:07:43.112Z,93554.47
2023-01-13T08:10:09.997Z,93567.72
2023-01-13T08:12:56.289Z,93587.31
2023-01-13T08:15:23.766Z,93579.63
2023-01-13T08:17:50.183Z,93605.47
2023-01-13T08:20:16.817Z,93593.47
2023-01-13T08:22:44.260Z,93598.47
2023-01-13T08:25:10.780Z,93589.69
2023-01-13T08:27:37.276Z,93594.16
2023-01-13T08:30:04.730Z,93613.84
2023-01-13T08:32:31.171Z,93578.09
2023-01-13T08:34:57.587Z,93600.97
2023-01-13T08:37:23.991Z,93587.97
2023-01-13T08:39:50.504Z,93594.09
2023-01-13T08:42:16.889Z,93602.53
2023-01-13T08:44:43.340Z,93596.09
2023-01-13T08:47:09.793Z,93606.03
2023-01-13T08:49:36.244Z,93615.63
2023-01-13T08:52:02.948Z,93620.75
2023-01-13T08:54:29.365Z,93599.56
2023-01-13T08:56:55.781Z,93600.34
2023-01-13T08:59:22.197Z,93575.50
2023-01-13T09:01:48.803Z,93575.84
2023-01-13T09:04:21.800Z,93621.66
2023-01-13T09:06:49.152Z,93589.00
2023-01-13T09:09:15.633Z,93599.16
2023-01-13T09:12:02.412Z,93625.81
2023-01-13T09:14:31.763Z,93630.34
2023-01-13T09:16:59.166Z,93619.88
2023-01-13T09:19:26.762Z,93619.72
2023-01-13T09:21:54.223Z,93620.47
2023-01-13T09:24:21.292Z,93611.84
2023-01-13T09:26:47.958Z,93589.88
2023-01-13T09:29:14.969Z,93602.94
2023-01-13T09:31:44.093Z,93641.47
2023-01-13T09:34:35.516Z,93612.25
2023-01-13T09:37:03.307Z,93620.56
2023-01-13T09:39:29.778Z,93608.47
2023-01-13T09:42:20.270Z,93609.63
2023-01-13T09:44:59.933Z,93629.69
2023-01-13T09:47:34.873Z,93597.56
2023-01-13T09:50:38.638Z,93629.34
2023-01-13T09:53:10.262Z,93622.72
2023-01-13T09:55:36.915Z,93607.94
2023-01-13T09:58:16.684Z,93606.03
2023-01-13T10:00:55.296Z,93649.44
2023-01-13T10:03:30.235Z,93640.31
2023-01-13T10:06:22.397Z,93593.84
2023-01-13T10:08:49.453Z,93617.28
2023-01-13T10:11:43.049Z,93596.19
2023-01-13T10:14:19.619Z,93611.50
2023-01-13T10:17:18.043Z,93622.34
2023-01-13T10:20:01.553Z,93587.25
2023-01-13T10:22:43.068Z,93618.56
2023-01-13T10:25:27.393Z,93609.44
2023-01-13T10:27:56.650Z,93620.63
2023-01-13T10:30:31.449Z,93585.31
2023-01-13T10:33:00.126Z,93614.22
2023-01-13T10:35:52.487Z,93595.34
2023-01-13T10:38:40.559Z,93601.88
2023-01-13T10:41:36.076Z,93610.25
2023-01-13T10:44:15.757Z,93589.00
2023-01-13T10:47:30.613Z,93548.41
2023-01-13T12:01:30.971Z,93625.31
2023-01-13T12:04:08.082Z,93471.50
2023-01-13T12:06:41.816Z,93422.53
2023-01-13T12:09:36.536Z,93530.94
2023-01-13T12:12:22.766Z,93437.25
2023-01-13T12:15:20.390Z,93650.56
2023-01-13T12:17:57.901Z,93481.31
2023-01-13T12:20:42.999Z,93676.75
2023-01-13T12:23:25.143Z,93470.78
2023-01-13T12:25:58.150Z,93568.81
2023-01-13T12:29:18.957Z,93668.88
2023-01-13T12:31:48.944Z,93470.59
2023-01-13T12:34:30.050Z,93638.00
2023-01-13T12:37:21.637Z,93649.16
2023-01-13T12:40:27.060Z,93624.09
2023-01-13T12:43:22.180Z,93495.13
2023-01-13T12:45:48.629Z,93389.28
2023-01-13T12:48:46.341Z,93627.56
2023-01-13T12:51:34.164Z,93594.13
2023-01-13T12:54:05.502Z,93579.88
2023-01-13T12:56:44.826Z,93602.22
2023-01-13T12:59:19.404Z,93607.28
2023-01-13T13:02:11.682Z,93595.53
2023-01-13T13:04:51.872Z,93578.09
2023-01-13T13:07:49.552Z,93594.53
2023-01-13T13:10:38.868Z,93656.19
2023-01-13T13:13:20.150Z,93576.09
2023-01-13T13:15:51.617Z,93586.38
2023-01-13T13:18:18.007Z,93618.84
2023-01-13T13:21:08.595Z,93642.34
2023-01-13T13:23:48.662Z,93643.06
2023-01-13T13:26:38.545Z,93643.38
2023-01-13T13:29:35.077Z,93644.88
2023-01-13T13:32:17.612Z,93632.50
2023-01-13T13:35:05.595Z,93660.88
2023-01-13T13:37:32.055Z,93646.91
2023-01-13T13:40:20.023Z,93630.56
2023-01-13T13:43:16.161Z,93667.69
2023-01-13T13:46:10.940Z,93649.47
2023-01-13T13:48:37.514Z,93684.38
2023-01-13T13:51:23.644Z,93680.22
2023-01-13T13:54:00.180Z,93669.38
2023-01-13T13:56:37.213Z,93688.94
2023-01-13T13:59:03.744Z,93696.97
2023-01-13T14:01:42.899Z,93697.75
2023-01-13T14:04:15.645Z,93663.00
2023-01-13T14:07:21.269Z,93680.59
2023-01-13T14:09:54.861Z,93647.84
2023-01-13T14:12:26.962Z,93668.72
2023-01-13T14:14:57.529Z,93656.50
2023-01-13T14:17:31.090Z,93702.75
2023-01-13T14:20:02.469Z,93687.59
2023-01-13T14:22:32.391Z,93692.88
2023-01-13T14:24:58.907Z,93715.97
2023-01-13T14:27:27.792Z,93686.22
2023-01-13T14:30:12.328Z,93674.22
2023-01-13T14:32:40.589Z,93699.66
2023-01-13T14:35:16.206Z,93680.56
2023-01-13T14:37:48.988Z,93728.69
2023-01-13T14:40:45.614Z,93736.75
2023-01-13T14:43:25.449Z,93752.00
2023-01-13T14:46:00.618Z,93725.97
2023-01-13T14:48:35.748Z,93745.31
2023-01-13T14:51:06.579Z,93737.53
2023-01-13T14:53:46.799Z,93746.09
2023-01-13T14:56:42.707Z,93788.59
2023-01-13T14:59:40.140Z,93777.31
2023-01-13T15:02:24.736Z,93770.16
2023-01-13T15:04:56.645Z,93775.69
2023-01-13T15:07:26.696Z,93765.97
2023-01-13T15:10:01.496Z,93745.53
2023-01-13T15:12:39.239Z,93745.75
2023-01-13T15:15:19.943Z,93775.41
2023-01-13T15:17:49.160Z,93750.94
2023-01-13T15:20:17.048Z,93784.00
2023-01-13T15:22:43.435Z,93771.72
2023-01-13T15:25:10.307Z,93776.97
2023-01-13T15:27:52.421Z,93801.31
2023-01-13T15:30:22.415Z,93791.84
2023-01-13T15:32:52.826Z,93774.59
2023-01-13T15:35:21.367Z,93813.66
2023-01-13T15:37:49.041Z,93808.81
2023-01-13T15:40:31.836Z,93824.03
2023-01-13T15:43:17.998Z,93816.97
2023-01-13T15:46:04.546Z,93794.44
2023-01-13T15:48:32.793Z,93796.66
2023-01-13T15:51:00.498Z,93821.19
2023-01-13T15:53:36.885Z,93820.19
2023-01-13T15:56:07.681Z,93815.69
2023-01-13T15:58:34.175Z,93819.31
2023-01-13T16:01:00.662Z,93844.69
2023-01-13T16:03:27.466Z,93852.22
2023-01-13T16:05:57.017Z,93841.69
2023-01-13T16:08:23.585Z,93853.94
2023-01-13T16:10:50.572Z,93879.19
2023-01-13T16:13:17.883Z,93894.56
2023-01-13T16:15:47.960Z,93892.47
2023-01-13T16:18:24.314Z,93914.75
2023-01-13T16:20:53.414Z,93918.66
2023-01-13T16:23:22.734Z,93942.91
2023-01-13T16:25:50.305Z,93973.84
2023-01-13T16:28:20.964Z,93984.50
2023-01-13T16:30:48.327Z,93959.69
2023-01-13T16:33:15.004Z,93984.94
2023-01-13T16:36:10.919Z,93990.72
2023-01-13T16:38:31.512Z,94036.56
2023-01-13T16:41:01.231Z,94006.81
2023-01-13T16:43:28.938Z,94003.78
2023-01-13T16:45:55.575Z,94020.16
2023-01-13T16:48:22.813Z,94012.66
2023-01-13T16:50:49.658Z,93984.53
2023-01-13T16:53:16.313Z,93994.97
2023-01-13T16:55:44.064Z,94000.13
2023-01-13T16:58:19.947Z,93973.09
2023-01-13T17:00:48.096Z,94012.06
2023-01-13T17:03:17.895Z,94002.19
2023-01-13T17:05:47.742Z,93993.00
2023-01-13T17:08:17.598Z,94053.81
2023-01-13T17:10:51.035Z,94029.28
2023-01-13T17:13:19.187Z,94022.66
2023-01-13T17:15:46.118Z,94010.47
2023-01-13T17:18:13.684Z,94055.75
2023-01-13T17:20:40.735Z,94032.69
2023-01-13T17:23:07.206Z,94033.03
2023-01-13T17:25:33.737Z,94024.66
2023-01-13T17:28:03.783Z,94065.44
2023-01-13T17:30:32.379Z,94043.38
2023-01-13T17:33:00.163Z,94052.59
2023-01-13T17:35:27.707Z,94055.75
2023-01-13T17:37:59.435Z,94045.34
2023-01-13T17:40:37.247Z,94081.06
2023-01-13T17:43:06.687Z,94025.53
2023-01-13T17:45:33.427Z,94070.66
2023-01-13T17:48:00.023Z,94060.03
2023-01-13T17:50:31.056Z,94092.31
2023-01-13T17:52:59.599Z,94046.00
2023-01-13T17:55:26.232Z,94077.97
2023-01-13T17:57:52.895Z,94026.94
2023-01-13T18:00:20.449Z,94011.16
2023-01-13T18:02:48.180Z,94052.66
2023-01-13T18:05:16.023Z,94057.53
2023-01-13T18:07:42.645Z,94020.94
2023-01-13T18:10:11.264Z,94050.31
2023-01-13T18:12:48.045Z,94035.03
2023-01-13T18:15:20.461Z,94048.50
2023-01-13T18:18:40.506Z,94048.16
2023-01-13T18:21:43.421Z,94032.47
2023-01-13T18:24:33.230Z,94063.56
2023-01-13T18:27:22.601Z,94043.34
2023-01-13T18:29:59.354Z,94032.13
2023-01-13T18:32:32.691Z,94004.56
2023-01-13T18:35:05.735Z,94042.38
2023-01-13T18:37:35.880Z,94039.63
2023-01-13T18:40:13.703Z,94066.00
2023-01-13T18:42:54.306Z,94030.94
